createdAt,value
2023-04-13T00:01:37.275Z,93854.06
2023-04-13T00:03:39.460Z,93856.09
2023-04-13T00:05:41.390Z,93849.25
2023-04-13T00:07:43.400Z,93857.59
2023-04-13T00:09:47.906Z,93855.50
2023-04-13T00:11:49.429Z,93860.22
2023-04-13T00:13:51.100Z,93857.28
2023-04-13T00:15:53.833Z,93869.50
2023-04-13T00:17:55.413Z,93873.91
2023-04-13T00:19:59.720Z,93868.91
2023-04-13T00:22:01.233Z,93877.06
2023-04-13T00:24:02.969Z,93869.25
2023-04-13T00:26:04.679Z,93874.34
2023-04-13T00:28:06.725Z,93879.06
2023-04-13T00:30:09.886Z,93875.66
2023-04-13T00:32:11.611Z,93869.44
2023-04-13T00:34:13.107Z,93875.00
2023-04-13T00:36:14.616Z,93880.38
2023-04-13T00:38:16.123Z,93867.00
2023-04-13T00:40:18.062Z,93880.53
2023-04-13T00:42:19.966Z,93881.19
2023-04-13T00:44:21.789Z,93875.63
2023-04-13T00:46:23.936Z,93882.16
2023-04-13T00:48:25.612Z,93867.78
2023-04-13T00:50:27.123Z,93869.25
2023-04-13T00:52:29.096Z,93873.03
2023-04-13T00:54:31.757Z,93874.97
2023-04-13T00:56:33.920Z,93883.47
2023-04-13T00:58:36.102Z,93880.19
2023-04-13T01:00:39.468Z,93881.19
2023-04-13T01:02:42.602Z,93885.41
2023-04-13T01:04:46.007Z,93885.56
2023-04-13T01:06:54.529Z,93889.50
2023-04-13T01:08:58.233Z,93886.88
2023-04-13T01:11:04.322Z,93884.75
2023-04-13T01:13:22.988Z,93883.81
2023-04-13T01:15:26.124Z,93896.50
2023-04-13T01:19:51.919Z,93893.09
2023-04-13T01:21:54.784Z,93885.75
2023-04-13T01:24:08.686Z,93892.28
2023-04-13T01:26:10.250Z,93893.91
2023-04-13T01:28:16.124Z,93890.63
2023-04-13T01:30:24.445Z,93891.94
2023-04-13T01:32:27.211Z,93894.25
2023-04-13T01:34:28.659Z,93884.75
2023-04-13T01:36:30.524Z,93886.72
2023-04-13T01:38:31.977Z,93894.09
2023-04-13T01:40:34.980Z,93883.81
2023-04-13T01:42:36.906Z,93887.38
2023-04-13T01:44:38.579Z,93881.69
2023-04-13T01:46:43.276Z,93882.50
2023-04-13T01:48:52.221Z,93882.50
2023-04-13T01:51:04.054Z,93885.25
2023-04-13T01:53:11.361Z,93878.56
2023-04-13T01:55:13.732Z,93883.63
2023-04-13T01:57:16.025Z,93880.03
2023-04-13T01:59:17.533Z,93870.91
2023-04-13T02:01:19.112Z,93876.47
2023-04-13T02:03:22.663Z,93876.63
2023-04-13T02:05:24.296Z,93873.03
2023-04-13T02:07:25.833Z,93879.88
2023-04-13T02:09:28.333Z,93880.53
2023-04-13T02:11:29.806Z,93881.50
2023-04-13T02:13:31.365Z,93893.91
2023-04-13T02:15:36.221Z,93900.75
2023-04-13T02:17:37.703Z,93887.84
2023-04-13T02:19:39.256Z,93885.72
2023-04-13T02:21:42.227Z,93895.97
2023-04-13T02:23:43.871Z,93893.38
2023-04-13T02:25:47.965Z,93891.56
2023-04-13T02:27:50.069Z,93893.66
2023-04-13T02:29:52.526Z,93887.66
2023-04-13T02:31:54.074Z,93895.81
2023-04-13T02:33:55.575Z,93898.72
2023-04-13T02:35:57.449Z,93895.63
2023-04-13T02:37:58.927Z,93899.19
2023-04-13T02:40:00.416Z,93910.59
2023-04-13T02:42:03.068Z,93903.91
2023-04-13T02:44:04.636Z,93903.63
2023-04-13T02:46:06.523Z,93903.44
2023-04-13T02:48:09.649Z,93908.84
2023-04-13T02:50:11.896Z,93897.09
2023-04-13T02:52:13.439Z,93903.13
2023-04-13T02:54:15.764Z,93914.69
2023-04-13T02:56:17.192Z,93915.38
2023-04-13T02:58:21.484Z,93920.25
2023-04-13T03:00:23.921Z,93908.50
2023-04-13T03:02:27.183Z,93915.19
2023-04-13T03:04:29.388Z,93918.25
2023-04-13T03:06:31.433Z,93928.19
2023-04-13T03:08:32.956Z,93917.59
2023-04-13T03:10:34.706Z,93917.09
2023-04-13T03:12:36.951Z,93922.63
2023-04-13T03:14:38.465Z,93924.13
2023-04-13T03:16:40.021Z,93919.06
2023-04-13T03:18:41.547Z,93917.41
2023-04-13T03:20:44.205Z,93911.53
2023-04-13T03:22:46.244Z,93924.41
2023-04-13T03:24:47.813Z,93931.38
2023-04-13T03:26:49.263Z,93927.59
2023-04-13T03:28:51.038Z,93929.06
2023-04-13T03:30:52.729Z,93925.00
2023-04-13T03:32:54.277Z,93929.91
2023-04-13T03:34:55.782Z,93933.66
2023-04-13T03:36:57.307Z,93930.38
2023-04-13T03:38:58.848Z,93933.81
2023-04-13T03:41:00.718Z,93933.19
2023-04-13T03:43:02.271Z,93937.41
2023-04-13T03:45:07.090Z,93930.75
2023-04-13T03:47:09.801Z,93929.63
2023-04-13T03:49:11.422Z,93932.56
2023-04-13T03:51:12.977Z,93922.91
2023-04-13T03:53:14.602Z,93928.91
2023-04-13T03:55:16.255Z,93937.72
2023-04-13T03:57:17.812Z,93927.81
2023-04-13T03:59:19.379Z,93931.75
2023-04-13T04:01:21.241Z,93934.34
2023-04-13T04:03:24.471Z,93931.78
2023-04-13T04:05:26.300Z,93930.47
2023-04-13T04:07:27.971Z,93928.97
2023-04-13T04:09:29.797Z,93941.03
2023-04-13T04:11:31.365Z,93944.13
2023-04-13T04:13:32.877Z,93940.72
2023-04-13T04:15:34.391Z,93942.34
2023-04-13T04:17:37.327Z,93940.72
2023-04-13T04:19:40.400Z,93936.50
2023-04-13T04:21:47.035Z,93938.63
2023-04-13T04:23:48.728Z,93945.63
2023-04-13T04:25:50.243Z,93944.03
2023-04-13T04:27:57.882Z,93950.88
2023-04-13T04:30:00.996Z,93941.94
2023-04-13T04:32:03.359Z,93957.09
2023-04-13T04:34:05.029Z,93955.50
2023-04-13T04:36:07.219Z,93953.19
2023-04-13T04:38:09.367Z,93959.56
2023-04-13T04:40:11.220Z,93959.38
2023-04-13T04:42:12.704Z,93964.28
2023-04-13T04:44:16.840Z,93958.13
2023-04-13T04:46:18.625Z,93962.38
2023-04-13T04:48:20.481Z,93957.50
2023-04-13T04:50:21.995Z,93958.28
2023-04-13T04:52:25.262Z,93968.88
2023-04-13T04:54:26.903Z,93961.72
2023-04-13T04:56:28.995Z,93963.66
2023-04-13T04:58:30.686Z,93964.63
2023-04-13T05:00:32.246Z,93961.91
2023-04-13T05:02:33.774Z,93958.31
2023-04-13T05:04:35.325Z,93959.13
2023-04-13T05:06:36.933Z,93957.03
2023-04-13T05:08:38.880Z,93955.56
2023-04-13T05:10:46.102Z,93957.53
2023-04-13T05:12:47.624Z,93955.72
2023-04-13T05:14:49.107Z,93966.63
2023-04-13T05:16:51.257Z,93961.25
2023-04-13T05:18:52.801Z,93956.03
2023-04-13T05:20:54.301Z,93959.13
2023-04-13T05:22:55.859Z,93956.69
2023-04-13T05:24:57.678Z,93958.34
2023-04-13T05:26:59.161Z,93962.41
2023-04-13T05:29:00.833Z,93962.72
2023-04-13T05:31:02.989Z,93961.59
2023-04-13T05:33:06.682Z,93967.94
2023-04-13T05:35:08.497Z,93958.44
2023-04-13T05:37:11.519Z,93966.09
2023-04-13T05:39:13.033Z,93966.59
2023-04-13T05:41:14.547Z,93961.25
2023-04-13T05:43:16.142Z,93960.41
2023-04-13T05:45:17.744Z,93959.94
2023-04-13T05:47:21.521Z,93960.44
2023-04-13T05:49:23.084Z,93953.72
2023-04-13T05:51:24.559Z,93953.75
2023-04-13T05:53:26.362Z,93965.81
2023-04-13T05:55:27.853Z,93966.31
2023-04-13T05:57:29.482Z,93956.03
2023-04-13T05:59:31.047Z,93944.75
2023-04-13T06:01:32.574Z,93950.56
2023-04-13T06:03:34.663Z,93943.72
2023-04-13T06:05:36.731Z,93947.19
2023-04-13T06:07:38.223Z,93963.41
2023-04-13T06:09:39.741Z,93960.13
2023-04-13T06:11:41.863Z,93960.75
2023-04-13T06:13:43.606Z,93954.56
2023-04-13T06:15:45.030Z,93956.38
2023-04-13T06:17:46.675Z,93965.63
2023-04-13T06:19:48.264Z,93973.06
2023-04-13T06:21:49.695Z,93967.50
2023-04-13T06:23:51.265Z,93968.69
2023-04-13T06:25:52.771Z,93963.03
2023-04-13T06:27:54.521Z,93958.31
2023-04-13T06:29:58.126Z,93963.81
2023-04-13T06:31:59.598Z,93964.66
2023-04-13T06:34:01.980Z,93964.03
2023-04-13T06:36:03.608Z,93969.88
2023-04-13T06:38:05.451Z,93968.28
2023-04-13T06:40:11.098Z,93962.53
2023-04-13T06:42:13.662Z,93961.13
2023-04-13T06:44:15.211Z,93967.47
2023-04-13T06:46:19.087Z,93955.50
2023-04-13T06:48:21.219Z,93953.19
2023-04-13T06:50:22.714Z,93958.16
2023-04-13T06:52:24.264Z,93954.09
2023-04-13T06:54:25.919Z,93956.97
2023-04-13T06:56:27.379Z,93955.81
2023-04-13T06:58:29.076Z,93954.59
2023-04-13T07:00:30.985Z,93965.84
2023-04-13T07:02:32.668Z,93966.69
2023-04-13T07:04:34.469Z,93965.63
2023-04-13T07:06:36.510Z,93956.69
2023-04-13T07:08:38.060Z,93958.63
2023-04-13T07:10:41.079Z,93956.97
2023-04-13T07:12:42.611Z,93953.72
2023-04-13T07:14:46.367Z,93950.81
2023-04-13T07:16:47.917Z,93953.59
2023-04-13T07:18:49.408Z,93951.28
2023-04-13T07:20:51.066Z,93953.31
2023-04-13T07:22:52.627Z,93958.38
2023-04-13T07:24:54.101Z,93952.94
2023-04-13T07:26:57.728Z,93945.78
2023-04-13T07:28:59.510Z,93951.72
2023-04-13T07:31:02.654Z,93951.59
2023-04-13T07:33:04.220Z,93943.19
2023-04-13T07:35:05.773Z,93943.97
2023-04-13T07:37:07.256Z,93939.28
2023-04-13T07:39:09.730Z,93945.88
2023-04-13T07:41:11.239Z,93941.28
2023-04-13T07:43:12.792Z,93940.53
2023-04-13T07:45:15.577Z,93936.03
2023-04-13T07:47:17.112Z,93941.13
2023-04-13T07:49:18.699Z,93933.25
2023-04-13T07:51:20.236Z,93935.91
2023-04-13T07:53:21.757Z,93930.69
2023-04-13T07:55:23.212Z,93931.50
2023-04-13T07:57:24.674Z,93922.88
2023-04-13T07:59:26.271Z,93924.00
2023-04-13T08:01:27.809Z,93925.50
2023-04-13T08:03:35.531Z,93929.31
2023-04-13T08:05:37.156Z,93931.94
2023-04-13T08:07:38.621Z,93927.72
2023-04-13T08:09:40.591Z,93922.81
2023-04-13T08:11:42.501Z,93919.84
2023-04-13T08:13:44.050Z,93917.78
2023-04-13T08:15:45.908Z,93920.97
2023-04-13T08:17:47.602Z,93913.72
2023-04-13T08:19:49.106Z,93915.94
2023-04-13T08:21:51.348Z,93909.31
2023-04-13T08:23:52.972Z,93907.34
2023-04-13T08:25:55.057Z,93905.56
2023-04-13T08:27:56.599Z,93906.25
2023-04-13T08:30:01.870Z,93902.59
2023-04-13T08:32:03.717Z,93891.88
2023-04-13T08:34:05.284Z,93896.34
2023-04-13T08:36:07.732Z,93899.78
2023-04-13T08:38:09.464Z,93898.97
2023-04-13T08:40:12.204Z,93901.44
2023-04-13T08:42:14.052Z,93894.75
2023-04-13T08:44:15.795Z,93890.28
2023-04-13T08:46:21.500Z,93886.41
2023-04-13T08:48:23.774Z,93893.13
2023-04-13T08:50:25.880Z,93885.41
2023-04-13T08:52:28.463Z,93879.69
2023-04-13T08:54:30.007Z,93876.06
2023-04-13T08:56:44.471Z,93882.16
2023-04-13T08:58:48.019Z,93876.63
2023-04-13T09:00:50.476Z,93877.59
2023-04-13T09:03:04.755Z,93873.41
2023-04-13T09:05:16.353Z,93876.88
2023-04-13T09:07:22.113Z,93879.34
2023-04-13T09:09:23.609Z,93874.28
2023-04-13T09:11:25.615Z,93863.53
2023-04-13T09:13:27.193Z,93877.72
2023-04-13T09:15:28.625Z,93869.00
2023-04-13T09:17:32.321Z,93871.19
2023-04-13T09:19:33.952Z,93862.59
2023-04-13T09:21:36.497Z,93854.88
2023-04-13T09:23:37.943Z,93850.94
2023-04-13T09:25:39.595Z,93852.94
2023-04-13T09:27:41.342Z,93844.97
2023-04-13T09:29:48.492Z,93847.91
2023-04-13T09:31:49.963Z,93854.59
2023-04-13T09:33:52.114Z,93849.94
2023-04-13T09:35:53.602Z,93848.63
2023-04-13T09:37:56.169Z,93842.44
2023-04-13T09:40:08.389Z,93840.16
2023-04-13T09:42:10.363Z,93838.94
2023-04-13T09:44:18.900Z,93840.41
2023-04-13T09:46:20.453Z,93831.56
2023-04-13T09:48:22.658Z,93831.72
2023-04-13T09:50:28.314Z,93827.72
2023-04-13T09:52:29.921Z,93818.38
2023-04-13T09:54:31.882Z,93819.44
2023-04-13T09:56:43.301Z,93812.03
2023-04-13T09:58:45.618Z,93818.63
2023-04-13T10:00:47.139Z,93817.94
2023-04-13T10:02:50.236Z,93817.84
2023-04-13T10:04:51.848Z,93809.91
2023-04-13T10:06:53.562Z,93801.66
2023-04-13T10:08:55.019Z,93803.28
2023-04-13T10:10:56.479Z,93809.38
2023-04-13T10:12:58.320Z,93799.94
2023-04-13T10:15:04.382Z,93797.03
2023-04-13T10:17:05.963Z,93802.53
2023-04-13T10:19:11.924Z,93808.63
2023-04-13T10:21:13.846Z,93797.38
2023-04-13T10:23:15.468Z,93802.47
2023-04-13T10:25:29.608Z,93794.53
2023-04-13T10:27:35.937Z,93798.41
2023-04-13T10:29:37.420Z,93792.22
2023-04-13T10:31:39.758Z,93785.03
2023-04-13T10:33:48.358Z,93780.06
2023-04-13T10:35:57.908Z,93791.44
2023-04-13T10:37:59.413Z,93789.34
2023-04-13T10:40:08.049Z,93787.16
2023-04-13T10:42:09.986Z,93790.91
2023-04-13T10:44:11.490Z,93788.38
2023-04-13T10:46:14.111Z,93785.53
2023-04-13T10:48:21.224Z,93779.72
2023-04-13T10:50:23.496Z,93790.78
2023-04-13T10:52:24.955Z,93784.00
2023-04-13T10:54:30.269Z,93774.69
2023-04-13T10:56:31.880Z,93788.19
2023-04-13T10:58:34.463Z,93781.97
2023-04-13T11:00:44.884Z,93776.34
2023-04-13T11:02:53.606Z,93776.81
2023-04-13T11:04:57.100Z,93770.13
2023-04-13T11:06:58.597Z,93763.09
2023-04-13T11:09:01.723Z,93770.56
2023-04-13T11:11:03.264Z,93755.03
2023-04-13T11:13:05.168Z,93760.22
2023-04-13T11:15:06.983Z,93751.22
2023-04-13T11:17:13.475Z,93742.59
2023-04-13T11:19:15.417Z,93737.75
2023-04-13T11:21:17.172Z,93733.59
2023-04-13T11:23:20.084Z,93733.69
2023-04-13T11:25:21.591Z,93731.47
2023-04-13T11:27:23.660Z,93730.25
2023-04-13T11:29:25.248Z,93738.28
2023-04-13T11:31:40.038Z,93720.75
2023-04-13T11:33:41.652Z,93732.59
2023-04-13T11:35:49.877Z,93744.47
2023-04-13T11:37:53.102Z,93745.41
2023-04-13T11:39:54.882Z,93740.56
2023-04-13T11:41:57.318Z,93737.44
2023-04-13T11:44:02.659Z,93743.44
2023-04-13T11:46:04.391Z,93732.72
2023-04-13T11:48:07.857Z,93731.09
2023-04-13T11:50:10.596Z,93716.88
2023-04-13T11:52:12.321Z,93730.09
2023-04-13T11:54:13.825Z,93732.59
2023-04-13T11:56:15.612Z,93727.16
2023-04-13T11:58:18.785Z,93735.13
2023-04-13T12:00:24.780Z,93726.59
2023-04-13T12:04:36.174Z,93721.84
2023-04-13T12:06:38.696Z,93720.09
2023-04-13T12:08:40.603Z,93719.88
2023-04-13T12:10:54.659Z,93717.03
2023-04-13T12:13:17.413Z,93713.75
2023-04-13T12:15:40.219Z,93712.56
2023-04-13T12:17:57.662Z,93707.78
2023-04-13T12:20:04.621Z,93704.72
2023-04-13T12:22:07.547Z,93709.88
2023-04-13T12:24:11.457Z,93690.88
2023-04-13T12:26:48.754Z,93699.13
2023-04-13T12:28:35.658Z,93702.19
2023-04-13T12:30:37.101Z,93699.75
2023-04-13T12:32:46.043Z,93690.06
2023-04-13T12:34:49.053Z,93678.88
2023-04-13T12:36:50.821Z,93678.31
2023-04-13T12:38:52.304Z,93674.91
2023-04-13T12:41:03.183Z,93682.16
2023-04-13T12:43:04.780Z,93680.16
2023-04-13T12:45:06.622Z,93676.75
2023-04-13T12:47:08.185Z,93668.47
2023-04-13T12:49:09.699Z,93662.19
2023-04-13T12:51:11.359Z,93665.41
2023-04-13T12:53:12.870Z,93665.41
2023-04-13T12:55:14.514Z,93660.06
2023-04-13T12:57:17.945Z,93660.50
2023-04-13T12:59:23.155Z,93663.00
2023-04-13T13:01:25.223Z,93651.66
2023-04-13T13:03:27.266Z,93653.88
2023-04-13T13:05:28.836Z,93658.06
2023-04-13T13:07:30.343Z,93652.69
2023-04-13T13:09:32.143Z,93645.13
2023-04-13T13:11:33.656Z,93645.81
2023-04-13T13:13:35.309Z,93648.56
2023-04-13T13:15:36.920Z,93635.56
2023-04-13T13:17:41.625Z,93629.75
2023-04-13T13:19:43.113Z,93628.31
2023-04-13T13:21:44.615Z,93640.28
2023-04-13T13:23:46.323Z,93639.00
2023-04-13T13:26:10.384Z,93609.78
2023-04-13T13:28:14.654Z,93626.59
2023-04-13T13:30:16.788Z,93626.88
2023-04-13T13:32:19.999Z,93623.34
2023-04-13T13:34:21.859Z,93629.34
2023-04-13T13:36:23.358Z,93625.53
2023-04-13T13:38:25.092Z,93620.66
2023-04-13T13:40:26.600Z,93609.19
2023-04-13T13:42:32.453Z,93605.81
2023-04-13T13:44:42.003Z,93611.75
2023-04-13T13:46:43.741Z,93613.47
2023-04-13T13:48:45.310Z,93619.59
2023-04-13T13:50:46.802Z,93611.56
2023-04-13T13:52:59.716Z,93611.94
2023-04-13T13:55:04.869Z,93607.25
2023-04-13T13:57:06.363Z,93607.81
2023-04-13T13:59:08.767Z,93607.75
2023-04-13T14:01:10.384Z,93603.09
2023-04-13T14:03:13.681Z,93595.88
2023-04-13T14:05:15.720Z,93594.25
2023-04-13T14:07:17.220Z,93591.28
2023-04-13T14:09:18.983Z,93587.84
2023-04-13T14:11:20.541Z,93588.56
2023-04-13T14:13:21.968Z,93580.16
2023-04-13T14:15:23.524Z,93579.47
2023-04-13T14:17:24.976Z,93576.53
2023-04-13T14:19:27.171Z,93578.56
2023-04-13T14:21:28.716Z,93576.38
2023-04-13T14:23:31.007Z,93581.44
2023-04-13T14:25:32.544Z,93586.56
2023-04-13T14:27:34.083Z,93578.09
2023-04-13T14:29:35.506Z,93577.41
2023-04-13T14:31:37.097Z,93573.19
2023-04-13T14:33:38.611Z,93585.09
2023-04-13T14:35:40.326Z,93583.28
2023-04-13T14:37:41.940Z,93580.81
2023-04-13T14:39:43.496Z,93584.00
2023-04-13T14:41:45.156Z,93578.94
2023-04-13T14:43:46.620Z,93587.19
2023-04-13T14:45:52.021Z,93585.59
2023-04-13T14:47:56.582Z,93582.63
2023-04-13T14:49:58.341Z,93585.50
2023-04-13T14:51:59.775Z,93587.59
2023-04-13T14:54:01.658Z,93587.00
2023-04-13T14:56:03.165Z,93599.06
2023-04-13T14:58:05.456Z,93595.69
2023-04-13T15:00:09.693Z,93597.97
2023-04-13T15:02:12.116Z,93599.41
2023-04-13T15:04:13.941Z,93594.03
2023-04-13T15:06:15.569Z,93598.19
2023-04-13T15:08:17.725Z,93593.19
2023-04-13T15:10:19.574Z,93597.44
2023-04-13T15:12:21.218Z,93596.72
2023-04-13T15:14:22.720Z,93605.94
2023-04-13T15:16:24.259Z,93610.66
2023-04-13T15:18:25.978Z,93603.97
2023-04-13T15:20:27.722Z,93605.94
2023-04-13T15:22:31.039Z,93600.09
2023-04-13T15:24:32.610Z,93601.16
2023-04-13T15:26:37.947Z,93609.38
2023-04-13T15:28:39.439Z,93607.75
2023-04-13T15:30:43.166Z,93609.00
2023-04-13T15:32:44.688Z,93604.72
2023-04-13T15:34:46.175Z,93599.56
2023-04-13T15:36:47.883Z,93589.16
2023-04-13T15:38:49.430Z,93599.09
2023-04-13T15:40:51.016Z,93606.31
2023-04-13T15:42:52.604Z,93597.50
2023-04-13T15:44:55.240Z,93606.13
2023-04-13T15:46:56.869Z,93604.97
2023-04-13T15:48:59.671Z,93609.72
2023-04-13T15:51:01.818Z,93597.31
2023-04-13T15:53:03.399Z,93597.59
2023-04-13T15:55:05.763Z,93596.41
2023-04-13T15:57:07.318Z,93604.56
2023-04-13T15:59:08.816Z,93589.72
2023-04-13T16:01:10.788Z,93590.28
2023-04-13T16:03:12.585Z,93596.75
2023-04-13T16:05:14.446Z,93585.03
2023-04-13T16:07:16.386Z,93597.69
2023-04-13T16:09:18.679Z,93592.38
2023-04-13T16:11:20.830Z,93596.19
2023-04-13T16:13:22.673Z,93608.38
2023-04-13T16:15:24.353Z,93609.34
2023-04-13T16:17:32.289Z,93598.66
2023-04-13T16:19:34.371Z,93599.00
2023-04-13T16:21:35.814Z,93611.47
2023-04-13T16:23:37.449Z,93609.06
2023-04-13T16:25:39.245Z,93607.06
2023-04-13T16:27:43.534Z,93610.66
2023-04-13T16:29:45.310Z,93617.44
2023-04-13T16:31:47.157Z,93605.53
2023-04-13T16:33:48.862Z,93606.53
2023-04-13T16:35:51.356Z,93608.59
2023-04-13T16:37:53.002Z,93608.69
2023-04-13T16:39:54.513Z,93608.47
2023-04-13T16:41:56.009Z,93605.94
2023-04-13T16:43:58.923Z,93604.03
2023-04-13T16:46:00.798Z,93602.09
2023-04-13T16:48:02.487Z,93600.66
2023-04-13T16:50:04.785Z,93605.59
2023-04-13T16:52:06.526Z,93598.75
2023-04-13T16:54:11.631Z,93599.72
2023-04-13T16:56:14.198Z,93603.03
2023-04-13T16:58:18.731Z,93599.13
2023-04-13T17:00:20.504Z,93605.97
2023-04-13T17:02:31.234Z,93596.50
2023-04-13T17:04:33.379Z,93602.66
2023-04-13T17:06:35.997Z,93603.28
2023-04-13T17:08:37.474Z,93616.38
2023-04-13T17:10:39.008Z,93607.44
2023-04-13T17:12:40.601Z,93608.72
2023-04-13T17:14:43.268Z,93606.78
2023-04-13T17:16:44.797Z,93609.09
2023-04-13T17:18:46.381Z,93601.84
2023-04-13T17:20:54.814Z,93607.38
2023-04-13T17:22:57.991Z,93612.34
2023-04-13T17:24:59.571Z,93608.78
2023-04-13T17:27:01.356Z,93603.63
2023-04-13T17:29:03.065Z,93612.84
2023-04-13T17:31:04.916Z,93616.53
2023-04-13T17:33:07.108Z,93617.81
2023-04-13T17:35:08.750Z,93629.44
2023-04-13T17:37:10.517Z,93633.72
2023-04-13T17:39:11.950Z,93634.66
2023-04-13T17:41:13.449Z,93636.28
2023-04-13T17:43:15.304Z,93642.53
2023-04-13T17:45:18.511Z,93647.47
2023-04-13T17:47:20.237Z,93646.19
2023-04-13T17:49:22.206Z,93645.19
2023-04-13T17:51:23.663Z,93650.47
2023-04-13T17:53:26.180Z,93642.09
2023-04-13T17:55:27.716Z,93652.09
2023-04-13T17:57:29.830Z,93645.66
2023-04-13T17:59:31.303Z,93646.94
2023-04-13T18:01:32.878Z,93646.59
2023-04-13T18:03:34.868Z,93653.47
2023-04-13T18:05:36.700Z,93656.59
2023-04-13T18:07:38.304Z,93649.09
2023-04-13T18:09:39.819Z,93652.34
2023-04-13T18:11:41.279Z,93649.69
2023-04-13T18:13:42.735Z,93661.13
2023-04-13T18:15:48.383Z,93652.91
2023-04-13T18:17:49.978Z,93653.03
2023-04-13T18:19:52.162Z,93650.84
2023-04-13T18:21:53.711Z,93666.53
2023-04-13T18:23:55.259Z,93668.63
2023-04-13T18:25:56.733Z,93667.56
2023-04-13T18:27:58.185Z,93671.25
2023-04-13T18:29:59.661Z,93667.47
2023-04-13T18:32:01.179Z,93672.28
2023-04-13T18:34:03.196Z,93669.41
2023-04-13T18:36:04.969Z,93675.72
2023-04-13T18:38:06.514Z,93674.72
2023-04-13T18:40:08.571Z,93681.41
2023-04-13T18:42:10.145Z,93680.25
2023-04-13T18:44:11.671Z,93680.59
2023-04-13T18:46:13.298Z,93690.41
2023-04-13T18:48:14.917Z,93696.94
2023-04-13T18:50:16.349Z,93693.72
2023-04-13T18:52:17.796Z,93693.81
2023-04-13T18:54:19.376Z,93698.56
2023-04-13T18:56:20.893Z,93706.75
2023-04-13T18:58:22.522Z,93705.34
2023-04-13T19:00:24.134Z,93710.41
2023-04-13T19:02:25.873Z,93706.41
2023-04-13T19:04:27.686Z,93706.41
2023-04-13T19:06:29.340Z,93709.03
2023-04-13T19:08:30.834Z,93713.53
2023-04-13T19:10:32.416Z,93706.97
2023-04-13T19:12:34.588Z,93710.66
2023-04-13T19:14:36.278Z,93709.25
2023-04-13T19:16:38.068Z,93716.88
2023-04-13T19:18:39.580Z,93717.09
2023-04-13T19:20:41.145Z,93713.28
2023-04-13T19:22:42.931Z,93727.13
2023-04-13T19:24:44.428Z,93725.59
2023-04-13T19:26:45.965Z,93724.63
2023-04-13T19:28:48.376Z,93728.66
2023-04-13T19:30:49.866Z,93728.44
2023-04-13T19:32:51.570Z,93722.25
2023-04-13T19:34:53.181Z,93731.25
2023-04-13T19:36:54.715Z,93723.16
2023-04-13T19:38:56.484Z,93726.56
2023-04-13T19:40:58.005Z,93716.31
2023-04-13T19:43:00.265Z,93734.19
2023-04-13T19:45:01.942Z,93729.03
2023-04-13T19:47:03.722Z,93715.00
2023-04-13T19:49:05.348Z,93718.22
2023-04-13T19:51:06.878Z,93718.06
2023-04-13T19:53:08.542Z,93714.19
2023-04-13T19:55:11.031Z,93720.44
2023-04-13T19:57:13.081Z,93727.44
2023-04-13T19:59:14.580Z,93732.59
2023-04-13T20:01:16.794Z,93738.63
2023-04-13T20:03:20.623Z,93738.53
2023-04-13T20:05:22.459Z,93742.31
2023-04-13T20:07:23.908Z,93727.66
2023-04-13T20:09:25.447Z,93734.31
2023-04-13T20:11:26.975Z,93751.72
2023-04-13T20:13:28.454Z,93761.19
2023-04-13T20:15:33.089Z,93751.09
2023-04-13T20:17:34.685Z,93743.59
2023-04-13T20:19:36.771Z,93743.06
2023-04-13T20:21:38.541Z,93746.06
2023-04-13T20:23:40.017Z,93751.91
2023-04-13T20:25:41.850Z,93754.63
2023-04-13T20:27:44.107Z,93754.16
2023-04-13T20:29:45.615Z,93757.66
2023-04-13T20:31:47.202Z,93761.09
2023-04-13T20:33:49.021Z,93755.44
2023-04-13T20:35:50.562Z,93747.31
2023-04-13T20:37:52.198Z,93761.53
2023-04-13T20:39:53.754Z,93762.34
2023-04-13T20:41:55.931Z,93754.44
2023-04-13T20:43:58.769Z,93753.09
2023-04-13T20:46:00.844Z,93738.81
2023-04-13T20:48:48.326Z,93748.59
2023-04-13T20:50:26.964Z,93771.69
2023-04-13T20:52:31.562Z,93747.94
2023-04-13T20:54:33.184Z,93730.94
2023-04-13T20:56:34.775Z,93742.28
2023-04-13T20:58:37.479Z,93758.13
2023-04-13T21:00:38.987Z,93757.44
2023-04-13T21:02:41.422Z,93733.78
2023-04-13T21:04:43.078Z,93742.50
2023-04-13T21:06:45.094Z,93743.91
2023-04-13T21:08:46.581Z,93745.69
2023-04-13T21:10:48.077Z,93740.84
2023-04-13T21:12:49.610Z,93744.91
2023-04-13T21:14:51.095Z,93746.31
2023-04-13T21:16:55.725Z,93753.75
2023-04-13T21:18:57.474Z,93736.50
2023-04-13T21:20:59.000Z,93736.41
2023-04-13T21:23:00.494Z,93743.13
2023-04-13T21:25:03.674Z,93755.06
2023-04-13T21:27:05.531Z,93748.38
2023-04-13T21:29:07.708Z,93739.03
2023-04-13T21:31:09.154Z,93736.59
2023-04-13T21:33:10.707Z,93748.16
2023-04-13T21:35:12.392Z,93740.00
2023-04-13T21:37:13.898Z,93739.41
2023-04-13T21:39:16.028Z,93742.50
2023-04-13T21:41:18.233Z,93749.78
2023-04-13T21:43:19.920Z,93750.78
2023-04-13T21:45:21.632Z,93753.19
2023-04-13T21:47:23.436Z,93771.44
2023-04-13T21:49:24.903Z,93758.44
2023-04-13T21:51:27.530Z,93737.88
2023-04-13T21:53:29.057Z,93742.75
2023-04-13T21:55:30.748Z,93756.75
2023-04-13T21:57:32.431Z,93757.94
2023-04-13T21:59:34.004Z,93751.84
2023-04-13T22:01:35.679Z,93761.34
2023-04-13T22:03:37.938Z,93761.78
2023-04-13T22:05:40.505Z,93743.72
2023-04-13T22:07:43.487Z,93731.19
2023-04-13T22:09:45.125Z,93738.69
2023-04-13T22:11:46.662Z,93750.03
2023-04-13T22:13:48.156Z,93749.59
2023-04-13T22:15:49.725Z,93756.28
2023-04-13T22:17:51.622Z,93751.84
2023-04-13T22:19:53.165Z,93734.41
2023-04-13T22:21:54.672Z,93741.13
2023-04-13T22:23:56.148Z,93740.91
2023-04-13T22:26:03.608Z,93745.16
2023-04-13T22:28:05.395Z,93741.50
2023-04-13T22:30:07.423Z,93732.16
2023-04-13T22:32:08.932Z,93738.44
2023-04-13T22:34:10.674Z,93747.75
2023-04-13T22:36:19.844Z,93739.66
2023-04-13T22:38:21.512Z,93738.69
2023-04-13T22:40:23.000Z,93743.97
2023-04-13T22:42:24.561Z,93746.16
2023-04-13T22:44:26.121Z,93743.13
2023-04-13T22:46:27.607Z,93737.47
2023-04-13T22:48:29.622Z,93750.47
2023-04-13T22:50:31.349Z,93743.97
2023-04-13T22:52:32.898Z,93740.94
2023-04-13T22:54:34.403Z,93750.44
2023-04-13T22:56:35.984Z,93742.75
2023-04-13T22:58:37.548Z,93731.22
2023-04-13T23:00:39.076Z,93738.28
2023-04-13T23:02:41.131Z,93740.94
2023-04-13T23:04:42.879Z,93740.94
2023-04-13T23:06:44.480Z,93727.97
2023-04-13T23:08:47.545Z,93741.75
2023-04-13T23:10:49.130Z,93739.28
2023-04-13T23:12:50.646Z,93734.63
2023-04-13T23:14:52.240Z,93745.97
2023-04-13T23:16:53.743Z,93729.19
2023-04-13T23:18:55.968Z,93734.88
2023-04-13T23:20:57.400Z,93749.06
2023-04-13T23:22:59.039Z,93743.19
2023-04-13T23:25:00.800Z,93736.28
2023-04-13T23:27:02.644Z,93732.41
2023-04-13T23:29:04.238Z,93728.97
2023-04-13T23:31:06.191Z,93739.91
2023-04-13T23:33:07.833Z,93729.56
2023-04-13T23:35:09.435Z,93729.38
2023-04-13T23:37:11.522Z,93740.13
2023-04-13T23:39:13.109Z,93733.84
2023-04-13T23:41:14.707Z,93737.47
2023-04-13T23:43:16.409Z,93731.38
2023-04-13T23:45:18.137Z,93732.56
2023-04-13T23:47:19.641Z,93719.25
2023-04-13T23:49:21.304Z,93718.66
2023-04-13T23:51:23.036Z,93737.09
2023-04-13T23:53:24.720Z,93735.47
2023-04-13T23:55:26.296Z,93736.28
2023-04-13T23:57:27.829Z,93734.66
2023-04-13T23:59:29.307Z,93741.53
